Marine Rouge — JG5115 — position and weather

sailwx.info

Track history (hours):
 
Tides and Currents Weather Stations Pressure Air Temp Water Temp Dewpoint Dewpoint Depression Visibility Wind Speed Wind Dir Waves Ship Positions

Marine Rouge

Last reported at 2014-Oct-01 12:33 UTC. Time now 2014-Oct-02 00:34 UTC.
Position N 35°27' E 139°39'.

Length 52 m; draft 2.8 m.

Type: Passenger vessel. MMSI: 431000518.

Date/timePositionNaut miles runAvg speedWind from/ knotsBaromVisibWave heightAir tempDewpointWater temp
2014-Oct-01 12:33N 35°27' E 139°39'3 2.6
2014-Oct-01 11:33N 35°28' E 139°42'3 2.7
2014-Oct-01 10:33N 35°27' E 139°39'1 0.5
2014-Oct-01 09:33N 35°27' E 139°39'0 0.0
2014-Oct-01 08:33N 35°27' E 139°39'1 0.7
2014-Oct-01 07:33N 35°27' E 139°39'1 0.7
2014-Oct-01 06:33N 35°27' E 139°39'0 0.1
2014-Oct-01 05:34N 35°27' E 139°39'0 0.1
2014-Oct-01 04:33N 35°27' E 139°39'0 0.5
2014-Oct-01 03:34N 35°27' E 139°39'0 0.5
2014-Oct-01 02:33N 35°27' E 139°39'0 0.0
2014-Oct-01 01:33N 35°27' E 139°39'0 0.0
2014-Oct-01 00:33N 35°27' E 139°39'0 0.0
2014-Sep-30 12:27N 35°27' E 139°39'1 0.8
2014-Sep-30 11:33N 35°28' E 139°40'1 0.8
2014-Sep-30 10:34N 35°27' E 139°39'1 0.5
2014-Sep-30 09:33N 35°27' E 139°39'0 0.4
2014-Sep-30 08:34N 35°27' E 139°39'0 0.3
2014-Sep-30 07:33N 35°27' E 139°39'1 0.7
2014-Sep-30 06:33N 35°27' E 139°39'0 0.1
2014-Sep-30 05:34N 35°27' E 139°39'0 0.1
2014-Sep-30 04:33N 35°27' E 139°39'1 0.5
2014-Sep-30 03:33N 35°27' E 139°39'1 0.5
2014-Sep-30 02:33N 35°27' E 139°39'0 0.0
2014-Sep-30 01:33N 35°27' E 139°39'0 0.0
2014-Sep-30 00:33N 35°27' E 139°39'0 0.0
2014-Sep-29 12:27N 35°27' E 139°39'1 0.7
2014-Sep-29 11:33N 35°28' E 139°39'0 0.4
2014-Sep-29 10:33N 35°27' E 139°39'1 0.6
2014-Sep-29 09:33N 35°27' E 139°39'0 0.0
2014-Sep-29 08:33N 35°27' E 139°39'0 0.0
2014-Sep-28 12:31N 35°27' E 139°39'1 0.6
2014-Sep-28 11:33N 35°28' E 139°39'0 0.2
2014-Sep-28 10:34N 35°28' E 139°39'1 1.1
2014-Sep-28 09:34N 35°27' E 139°39'0 0.0
2014-Sep-28 08:34N 35°27' E 139°39'1 0.8
2014-Sep-28 07:33N 35°27' E 139°40'1 0.8
2014-Sep-28 06:34N 35°27' E 139°39'0 0.0
2014-Sep-28 05:33N 35°27' E 139°39'0 0.0
2014-Sep-28 04:33N 35°27' E 139°39'3 2.9
2014-Sep-28 03:33N 35°27' E 139°43'3 2.9
2014-Sep-28 02:33N 35°27' E 139°39'0 0.0
2014-Sep-28 01:33N 35°27' E 139°39'0 0.0
2014-Sep-28 00:34N 35°27' E 139°39'0 0.0
2014-Sep-27 12:26N 35°27' E 139°39'1 0.9
2014-Sep-27 11:34N 35°28' E 139°39'1 0.8
2014-Sep-27 10:34N 35°27' E 139°40'1 0.9
2014-Sep-27 09:33N 35°27' E 139°39'0 0.0
2014-Sep-27 08:33N 35°27' E 139°39'1 1.3
2014-Sep-27 07:33N 35°27' E 139°41'1 1.3
2014-Sep-27 06:34N 35°27' E 139°39'0 0.1
2014-Sep-27 05:34N 35°27' E 139°39'0 0.1
2014-Sep-27 04:34N 35°27' E 139°39'1 0.5
2014-Sep-27 03:34N 35°27' E 139°39'1 0.5
2014-Sep-27 02:34N 35°27' E 139°39'0 0.0
2014-Sep-27 01:34N 35°27' E 139°39'0 0.0
2014-Sep-27 00:33N 35°27' E 139°39'1 0.0
2014-Sep-26 12:34N 35°27' E 139°39'1 0.9
2014-Sep-26 11:33N 35°28' E 139°40'1 0.8
2014-Sep-26 10:34N 35°27' E 139°39'1 0.5
2014-Sep-26 09:33N 35°27' E 139°39'0 0.0
2014-Sep-26 08:33N 35°27' E 139°39'1 0.5
2014-Sep-26 07:34N 35°27' E 139°39'1 0.5
2014-Sep-26 06:34N 35°27' E 139°39'0 0.1
2014-Sep-26 05:34N 35°27' E 139°39'0 0.1
2014-Sep-26 04:34N 35°27' E 139°39'1 0.6
2014-Sep-26 03:33N 35°27' E 139°39'1 0.6
2014-Sep-26 02:33N 35°27' E 139°39'0 0.0
2014-Sep-26 01:34N 35°27' E 139°39'0 0.0
2014-Sep-26 00:34N 35°27' E 139°39'0 0.0
2014-Sep-25 12:27N 35°27' E 139°39'1 1.1
2014-Sep-25 11:33N 35°28' E 139°40'1 0.7
2014-Sep-25 10:33N 35°27' E 139°39'1 0.6
2014-Sep-25 09:33N 35°27' E 139°39'0 0.0
2014-Sep-25 08:33N 35°27' E 139°39'3 2.9
2014-Sep-25 07:33N 35°28' E 139°42'3 2.9
2014-Sep-25 06:33N 35°27' E 139°39'0 0.0
2014-Sep-25 05:33N 35°27' E 139°39'0 0.0
2014-Sep-25 04:33N 35°27' E 139°39'1 0.8
2014-Sep-25 03:33N 35°28' E 139°39'1 0.8
2014-Sep-25 02:33N 35°27' E 139°39'0 0.0
2014-Sep-25 01:33N 35°27' E 139°39'0 0.0
2014-Sep-25 00:33N 35°27' E 139°39'2 0.2
2014-Sep-24 11:33N 35°28' E 139°41'2 1.8
2014-Sep-24 10:33N 35°27' E 139°39'1 0.0
2014-Sep-22 12:33N 35°27' E 139°39'1 0.9
2014-Sep-22 11:33N 35°28' E 139°39'0 0.5
2014-Sep-22 10:33N 35°27' E 139°39'1 0.6
2014-Sep-22 09:33N 35°27' E 139°39'0 0.0
2014-Sep-22 08:33N 35°27' E 139°39'1 0.7
2014-Sep-22 07:33N 35°27' E 139°39'1 0.7
2014-Sep-22 06:33N 35°27' E 139°39'0 0.1
2014-Sep-22 05:33N 35°27' E 139°39'0 0.1
2014-Sep-22 04:33N 35°27' E 139°39'1 0.5
2014-Sep-22 03:33N 35°27' E 139°39'1 0.5
2014-Sep-22 02:33N 35°27' E 139°39'0 0.0
2014-Sep-22 01:33N 35°27' E 139°39'0 0.0
2014-Sep-22 00:33N 35°27' E 139°39'  
Track history (hours):
 
Tides and Currents Weather Stations Pressure Air Temp Water Temp Dewpoint Dewpoint Depression Visibility Wind Speed Wind Dir Waves Ship Positions

Marine Rouge

Last reported at 2014-Oct-01 12:33 UTC. Time now 2014-Oct-02 00:34 UTC.
Position N 35°27' E 139°39'.

Length 52 m; draft 2.8 m.

Type: Passenger vessel. MMSI: 431000518.

Date/timePositionNaut miles runAvg speedWind from/ knotsBaromVisibWave heightAir tempDewpointWater temp
2014-Oct-01 12:33N 35°27' E 139°39'3 2.6
2014-Oct-01 11:33N 35°28' E 139°42'3 2.7
2014-Oct-01 10:33N 35°27' E 139°39'1 0.5
2014-Oct-01 09:33N 35°27' E 139°39'0 0.0
2014-Oct-01 08:33N 35°27' E 139°39'1 0.7
2014-Oct-01 07:33N 35°27' E 139°39'1 0.7
2014-Oct-01 06:33N 35°27' E 139°39'0 0.1
2014-Oct-01 05:34N 35°27' E 139°39'0 0.1
2014-Oct-01 04:33N 35°27' E 139°39'0 0.5
2014-Oct-01 03:34N 35°27' E 139°39'0 0.5
2014-Oct-01 02:33N 35°27' E 139°39'0 0.0
2014-Oct-01 01:33N 35°27' E 139°39'0 0.0
2014-Oct-01 00:33N 35°27' E 139°39'0 0.0
2014-Sep-30 12:27N 35°27' E 139°39'1 0.8
2014-Sep-30 11:33N 35°28' E 139°40'1 0.8
2014-Sep-30 10:34N 35°27' E 139°39'1 0.5
2014-Sep-30 09:33N 35°27' E 139°39'0 0.4
2014-Sep-30 08:34N 35°27' E 139°39'0 0.3
2014-Sep-30 07:33N 35°27' E 139°39'1 0.7
2014-Sep-30 06:33N 35°27' E 139°39'0 0.1
2014-Sep-30 05:34N 35°27' E 139°39'0 0.1
2014-Sep-30 04:33N 35°27' E 139°39'1 0.5
2014-Sep-30 03:33N 35°27' E 139°39'1 0.5
2014-Sep-30 02:33N 35°27' E 139°39'0 0.0
2014-Sep-30 01:33N 35°27' E 139°39'0 0.0
2014-Sep-30 00:33N 35°27' E 139°39'0 0.0
2014-Sep-29 12:27N 35°27' E 139°39'1 0.7
2014-Sep-29 11:33N 35°28' E 139°39'0 0.4
2014-Sep-29 10:33N 35°27' E 139°39'1 0.6
2014-Sep-29 09:33N 35°27' E 139°39'0 0.0
2014-Sep-29 08:33N 35°27' E 139°39'0 0.0
2014-Sep-28 12:31N 35°27' E 139°39'1 0.6
2014-Sep-28 11:33N 35°28' E 139°39'0 0.2
2014-Sep-28 10:34N 35°28' E 139°39'1 1.1
2014-Sep-28 09:34N 35°27' E 139°39'0 0.0
2014-Sep-28 08:34N 35°27' E 139°39'1 0.8
2014-Sep-28 07:33N 35°27' E 139°40'1 0.8
2014-Sep-28 06:34N 35°27' E 139°39'0 0.0
2014-Sep-28 05:33N 35°27' E 139°39'0 0.0
2014-Sep-28 04:33N 35°27' E 139°39'3 2.9
2014-Sep-28 03:33N 35°27' E 139°43'3 2.9
2014-Sep-28 02:33N 35°27' E 139°39'0 0.0
2014-Sep-28 01:33N 35°27' E 139°39'0 0.0
2014-Sep-28 00:34N 35°27' E 139°39'0 0.0
2014-Sep-27 12:26N 35°27' E 139°39'1 0.9
2014-Sep-27 11:34N 35°28' E 139°39'1 0.8
2014-Sep-27 10:34N 35°27' E 139°40'1 0.9
2014-Sep-27 09:33N 35°27' E 139°39'0 0.0
2014-Sep-27 08:33N 35°27' E 139°39'1 1.3
2014-Sep-27 07:33N 35°27' E 139°41'1 1.3
2014-Sep-27 06:34N 35°27' E 139°39'0 0.1
2014-Sep-27 05:34N 35°27' E 139°39'0 0.1
2014-Sep-27 04:34N 35°27' E 139°39'1 0.5
2014-Sep-27 03:34N 35°27' E 139°39'1 0.5
2014-Sep-27 02:34N 35°27' E 139°39'0 0.0
2014-Sep-27 01:34N 35°27' E 139°39'0 0.0
2014-Sep-27 00:33N 35°27' E 139°39'1 0.0
2014-Sep-26 12:34N 35°27' E 139°39'1 0.9
2014-Sep-26 11:33N 35°28' E 139°40'1 0.8
2014-Sep-26 10:34N 35°27' E 139°39'1 0.5
2014-Sep-26 09:33N 35°27' E 139°39'0 0.0
2014-Sep-26 08:33N 35°27' E 139°39'1 0.5
2014-Sep-26 07:34N 35°27' E 139°39'1 0.5
2014-Sep-26 06:34N 35°27' E 139°39'0 0.1
2014-Sep-26 05:34N 35°27' E 139°39'0 0.1
2014-Sep-26 04:34N 35°27' E 139°39'1 0.6
2014-Sep-26 03:33N 35°27' E 139°39'1 0.6
2014-Sep-26 02:33N 35°27' E 139°39'0 0.0
2014-Sep-26 01:34N 35°27' E 139°39'0 0.0
2014-Sep-26 00:34N 35°27' E 139°39'0 0.0
2014-Sep-25 12:27N 35°27' E 139°39'1 1.1
2014-Sep-25 11:33N 35°28' E 139°40'1 0.7
2014-Sep-25 10:33N 35°27' E 139°39'1 0.6
2014-Sep-25 09:33N 35°27' E 139°39'0 0.0
2014-Sep-25 08:33N 35°27' E 139°39'3 2.9
2014-Sep-25 07:33N 35°28' E 139°42'3 2.9
2014-Sep-25 06:33N 35°27' E 139°39'0 0.0
2014-Sep-25 05:33N 35°27' E 139°39'0 0.0
2014-Sep-25 04:33N 35°27' E 139°39'1 0.8
2014-Sep-25 03:33N 35°28' E 139°39'1 0.8
2014-Sep-25 02:33N 35°27' E 139°39'0 0.0
2014-Sep-25 01:33N 35°27' E 139°39'0 0.0
2014-Sep-25 00:33N 35°27' E 139°39'2 0.2
2014-Sep-24 11:33N 35°28' E 139°41'2 1.8
2014-Sep-24 10:33N 35°27' E 139°39'1 0.0
2014-Sep-22 12:33N 35°27' E 139°39'1 0.9
2014-Sep-22 11:33N 35°28' E 139°39'0 0.5
2014-Sep-22 10:33N 35°27' E 139°39'1 0.6
2014-Sep-22 09:33N 35°27' E 139°39'0 0.0
2014-Sep-22 08:33N 35°27' E 139°39'1 0.7
2014-Sep-22 07:33N 35°27' E 139°39'1 0.7
2014-Sep-22 06:33N 35°27' E 139°39'0 0.1
2014-Sep-22 05:33N 35°27' E 139°39'0 0.1
2014-Sep-22 04:33N 35°27' E 139°39'1 0.5
2014-Sep-22 03:33N 35°27' E 139°39'1 0.5
2014-Sep-22 02:33N 35°27' E 139°39'0 0.0
2014-Sep-22 01:33N 35°27' E 139°39'0 0.0
2014-Sep-22 00:33N 35°27' E 139°39'  

Dump ship's entire track history